createdAt,value
2023-04-24T00:00:10.701Z,63284.57
2023-04-24T00:01:13.413Z,63294.96
2023-04-24T00:02:15.571Z,63286.99
2023-04-24T00:03:18.272Z,63291.13
2023-04-24T00:04:20.505Z,63285.67
2023-04-24T00:05:22.990Z,63278.00
2023-04-24T00:06:26.501Z,63268.15
2023-04-24T00:07:29.376Z,63258.32
2023-04-24T00:08:31.255Z,63251.76
2023-04-24T00:09:35.122Z,63247.80
2023-04-24T00:10:37.142Z,63243.55
2023-04-24T00:11:39.003Z,63241.37
2023-04-24T00:12:40.867Z,63246.70
2023-04-24T00:13:44.997Z,63250.79
2023-04-24T00:14:47.023Z,63270.76
2023-04-24T00:15:48.886Z,63279.10
2023-04-24T00:16:50.988Z,63291.68
2023-04-24T00:17:53.096Z,63298.54
2023-04-24T00:18:55.318Z,63275.93
2023-04-24T00:19:57.783Z,63273.75
2023-04-24T00:20:59.959Z,63267.61
2023-04-24T00:22:03.087Z,63221.57
2023-04-24T00:23:04.974Z,63221.14
2023-04-24T00:24:07.198Z,63241.11
2023-04-24T00:25:09.191Z,63236.20
2023-04-24T00:26:11.370Z,63247.27
2023-04-24T00:27:13.430Z,63246.29
2023-04-24T00:28:15.349Z,63255.88
2023-04-24T00:29:17.190Z,63232.49
2023-04-24T00:30:19.762Z,63243.55
2023-04-24T00:31:21.732Z,63251.20
2023-04-24T00:32:23.650Z,63258.19
2023-04-24T00:33:25.790Z,63259.83
2023-04-24T00:34:27.769Z,63268.15
2023-04-24T00:35:29.644Z,63276.66
2023-04-24T00:36:31.609Z,63241.91
2023-04-24T00:37:33.547Z,63237.29
2023-04-24T00:38:35.527Z,63243.01
2023-04-24T00:39:37.383Z,63240.27
2023-04-24T00:40:39.695Z,63253.70
2023-04-24T00:41:42.340Z,63268.45
2023-04-24T00:42:44.706Z,63266.40
2023-04-24T00:43:46.588Z,63264.87
2023-04-24T00:44:48.829Z,63260.07
2023-04-24T00:45:50.853Z,63262.01
2023-04-24T00:46:54.394Z,63252.84
2023-04-24T00:47:57.112Z,63248.48
2023-04-24T00:48:59.843Z,63249.31
2023-04-24T00:50:06.936Z,63235.35
2023-04-24T00:51:08.947Z,63235.89
2023-04-24T00:52:10.815Z,63244.95
2023-04-24T00:53:12.774Z,63239.17
2023-04-24T00:54:15.112Z,63248.91
2023-04-24T00:55:17.884Z,63246.70
2023-04-24T00:56:20.056Z,63237.53
2023-04-24T00:57:22.195Z,63252.16
2023-04-24T00:58:24.757Z,63265.73
2023-04-24T00:59:27.331Z,63263.79
2023-04-24T01:00:29.393Z,63274.04
2023-04-24T01:01:31.981Z,63282.38
2023-04-24T01:02:34.203Z,63290.33
2023-04-24T01:03:36.645Z,63287.85
2023-04-24T01:04:39.894Z,63290.03
2023-04-24T01:05:42.682Z,63297.57
2023-04-24T01:06:46.168Z,63277.46
2023-04-24T01:07:48.388Z,63277.76
2023-04-24T01:08:50.447Z,63270.09
2023-04-24T01:09:52.514Z,63266.40
2023-04-24T01:10:57.190Z,63264.20
2023-04-24T01:11:59.090Z,63261.59
2023-04-24T01:13:01.055Z,63263.55
2023-04-24T01:14:03.091Z,63250.66
2023-04-24T01:15:06.000Z,63250.66
2023-04-24T01:16:09.023Z,63255.04
2023-04-24T01:17:11.291Z,63253.94
2023-04-24T01:18:13.979Z,63257.22
2023-04-24T01:19:18.483Z,63255.88
2023-04-24T01:20:21.365Z,63260.26
2023-04-24T01:21:25.998Z,63262.69
2023-04-24T01:22:28.144Z,63253.94
2023-04-24T01:23:30.236Z,63252.60
2023-04-24T01:24:32.112Z,63252.60
2023-04-24T01:25:34.877Z,63254.48
2023-04-24T01:26:36.851Z,63251.20
2023-04-24T01:27:38.849Z,63252.97
2023-04-24T01:28:41.006Z,63263.55
2023-04-24T01:29:43.402Z,63255.58
2023-04-24T01:30:46.129Z,63254.37
2023-04-24T01:31:48.360Z,63249.15
2023-04-24T01:32:51.344Z,63258.32
2023-04-24T01:33:55.040Z,63269.55
2023-04-24T01:34:58.016Z,63272.96
2023-04-24T01:36:00.194Z,63285.67
2023-04-24T01:37:02.171Z,63275.82
2023-04-24T01:38:04.810Z,63255.28
2023-04-24T01:39:06.914Z,63246.46
2023-04-24T01:40:10.485Z,63243.42
2023-04-24T01:41:13.724Z,63222.89
2023-04-24T01:42:17.133Z,63226.06
2023-04-24T01:43:19.628Z,63224.96
2023-04-24T01:44:22.084Z,63228.11
2023-04-24T01:45:24.057Z,63223.99
2023-04-24T01:46:26.738Z,63224.42
2023-04-24T01:47:30.216Z,63222.65
2023-04-24T01:48:32.973Z,63220.89
2023-04-24T01:49:35.611Z,63208.69
2023-04-24T01:50:38.119Z,63217.32
2023-04-24T01:51:42.592Z,63224.42
2023-04-24T01:52:44.927Z,63227.87
2023-04-24T01:53:46.808Z,63226.06
2023-04-24T01:54:49.040Z,63219.37
2023-04-24T01:55:52.072Z,63221.68
2023-04-24T01:56:54.152Z,63230.72
2023-04-24T01:57:56.848Z,63230.72
2023-04-24T01:59:01.974Z,63226.06
2023-04-24T02:00:05.661Z,63225.80
2023-04-24T02:01:07.674Z,63205.16
2023-04-24T02:02:10.120Z,63211.97
2023-04-24T02:03:12.312Z,63215.68
2023-04-24T02:04:17.000Z,63212.40
2023-04-24T02:05:19.624Z,63209.95
2023-04-24T02:06:21.850Z,63211.05
2023-04-24T02:07:23.852Z,63207.34
2023-04-24T02:08:25.828Z,63202.42
2023-04-24T02:09:27.682Z,63189.43
2023-04-24T02:10:29.975Z,63182.62
2023-04-24T02:11:31.997Z,63185.07
2023-04-24T02:12:34.102Z,63185.07
2023-04-24T02:13:36.241Z,63189.32
2023-04-24T02:14:38.185Z,63199.27
2023-04-24T02:15:40.079Z,63197.63
2023-04-24T02:16:42.647Z,63195.99
2023-04-24T02:17:44.785Z,63215.41
2023-04-24T02:18:46.952Z,63207.90
2023-04-24T02:19:50.036Z,63217.62
2023-04-24T02:20:52.216Z,63208.69
2023-04-24T02:21:54.163Z,63212.80
2023-04-24T02:22:56.153Z,63210.76
2023-04-24T02:23:58.141Z,63222.65
2023-04-24T02:25:00.202Z,63214.58
2023-04-24T02:26:02.538Z,63208.55
2023-04-24T02:27:04.851Z,63208.55
2023-04-24T02:28:06.870Z,63202.31
2023-04-24T02:29:09.020Z,63192.71
2023-04-24T02:30:11.392Z,63186.58
2023-04-24T02:31:13.367Z,63186.58
2023-04-24T02:32:15.297Z,63183.30
2023-04-24T02:33:17.230Z,63176.87
2023-04-24T02:34:19.081Z,63171.95
2023-04-24T02:35:20.951Z,63169.21
2023-04-24T02:36:23.085Z,63164.18
2023-04-24T02:37:24.942Z,63166.36
2023-04-24T02:38:26.903Z,63146.14
2023-04-24T02:39:28.911Z,63145.73
2023-04-24T02:40:31.055Z,63156.52
2023-04-24T02:41:33.002Z,63155.30
2023-04-24T02:42:34.879Z,63147.66
2023-04-24T02:43:36.737Z,63155.30
2023-04-24T02:44:38.602Z,63143.54
2023-04-24T02:45:40.721Z,63149.42
2023-04-24T02:46:43.040Z,63154.88
2023-04-24T02:47:45.163Z,63156.52
2023-04-24T02:48:47.211Z,63159.01
2023-04-24T02:49:49.062Z,63148.59
2023-04-24T02:50:51.454Z,63155.98
2023-04-24T02:51:53.308Z,63156.52
2023-04-24T02:52:55.173Z,63171.14
2023-04-24T02:53:57.275Z,63160.36
2023-04-24T02:54:59.154Z,63156.65
2023-04-24T02:56:01.185Z,63168.13
2023-04-24T02:57:03.257Z,63174.56
2023-04-24T02:58:05.242Z,63165.39
2023-04-24T02:59:07.223Z,63152.70
2023-04-24T03:00:10.629Z,63147.66
2023-04-24T03:01:14.767Z,63136.41
2023-04-24T03:02:16.858Z,63143.42
2023-04-24T03:03:18.980Z,63140.25
2023-04-24T03:04:21.069Z,63132.73
2023-04-24T03:05:23.161Z,63143.27
2023-04-24T03:06:25.434Z,63135.45
2023-04-24T03:07:27.306Z,63150.39
2023-04-24T03:08:29.303Z,63149.55
2023-04-24T03:09:31.293Z,63163.64
2023-04-24T03:10:33.349Z,63166.24
2023-04-24T03:11:36.883Z,63165.39
2023-04-24T03:12:39.077Z,63162.67
2023-04-24T03:13:41.110Z,63162.00
2023-04-24T03:14:43.277Z,63167.21
2023-04-24T03:15:45.359Z,63161.03
2023-04-24T03:16:47.629Z,63163.64
2023-04-24T03:17:50.698Z,63155.55
2023-04-24T03:18:52.693Z,63163.50
2023-04-24T03:19:54.564Z,63173.88
2023-04-24T03:20:57.681Z,63168.67
2023-04-24T03:21:59.601Z,63166.90
2023-04-24T03:23:01.444Z,63171.14
2023-04-24T03:24:03.498Z,63158.29
2023-04-24T03:25:06.372Z,63169.50
2023-04-24T03:26:08.557Z,63169.10
2023-04-24T03:27:10.416Z,63175.23
2023-04-24T03:28:12.543Z,63179.18
2023-04-24T03:29:14.503Z,63183.43
2023-04-24T03:30:16.966Z,63198.60
2023-04-24T03:31:19.076Z,63191.50
2023-04-24T03:32:24.419Z,63181.23
2023-04-24T03:33:26.546Z,63189.43
2023-04-24T03:34:28.658Z,63188.35
2023-04-24T03:35:30.549Z,63183.97
2023-04-24T03:36:32.500Z,63168.24
2023-04-24T03:37:34.489Z,63168.54
2023-04-24T03:38:36.353Z,63169.50
2023-04-24T03:39:38.212Z,63168.13
2023-04-24T03:40:40.467Z,63183.30
2023-04-24T03:41:42.316Z,63187.68
2023-04-24T03:42:44.185Z,63185.61
2023-04-24T03:43:46.070Z,63168.67
2023-04-24T03:44:47.954Z,63178.08
2023-04-24T03:45:49.827Z,63172.38
2023-04-24T03:46:51.957Z,63168.96
2023-04-24T03:47:54.795Z,63155.98
2023-04-24T03:48:57.947Z,63158.59
2023-04-24T03:50:00.218Z,63162.29
2023-04-24T03:51:02.194Z,63165.68
2023-04-24T03:52:04.105Z,63171.14
2023-04-24T03:53:06.106Z,63159.68
2023-04-24T03:54:08.104Z,63162.11
2023-04-24T03:55:10.078Z,63151.62
2023-04-24T03:56:12.254Z,63157.75
2023-04-24T03:57:14.269Z,63165.82
2023-04-24T03:58:16.495Z,63164.85
2023-04-24T03:59:18.697Z,63160.47
2023-04-24T04:00:21.050Z,63159.39
2023-04-24T04:01:23.494Z,63162.83
2023-04-24T04:02:25.583Z,63160.47
2023-04-24T04:03:27.871Z,63152.83
2023-04-24T04:04:30.175Z,63156.40
2023-04-24T04:05:32.375Z,63159.13
2023-04-24T04:06:34.657Z,63165.14
2023-04-24T04:07:36.623Z,63163.21
2023-04-24T04:08:38.520Z,63165.14
2023-04-24T04:09:40.617Z,63162.41
2023-04-24T04:10:43.648Z,63169.39
2023-04-24T04:11:45.695Z,63167.57
2023-04-24T04:12:47.544Z,63170.18
2023-04-24T04:13:49.610Z,63174.13
2023-04-24T04:14:51.462Z,63181.79
2023-04-24T04:15:53.408Z,63189.32
2023-04-24T04:16:55.519Z,63183.54
2023-04-24T04:17:57.610Z,63187.12
2023-04-24T04:18:59.543Z,63186.71
2023-04-24T04:20:01.405Z,63188.35
2023-04-24T04:21:03.555Z,63184.51
2023-04-24T04:22:05.428Z,63189.86
2023-04-24T04:23:07.459Z,63184.94
2023-04-24T04:24:09.433Z,63188.76
2023-04-24T04:25:11.397Z,63193.01
2023-04-24T04:26:14.019Z,63185.91
2023-04-24T04:27:16.011Z,63199.43
2023-04-24T04:28:18.002Z,63195.45
2023-04-24T04:29:19.881Z,63203.66
2023-04-24T04:30:22.086Z,63213.23
2023-04-24T04:31:24.169Z,63212.80
2023-04-24T04:32:26.289Z,63201.05
2023-04-24T04:33:28.487Z,63208.87
2023-04-24T04:34:30.372Z,63224.18
2023-04-24T04:35:32.305Z,63229.21
2023-04-24T04:36:34.372Z,63246.70
2023-04-24T04:37:36.318Z,63251.62
2023-04-24T04:38:38.248Z,63244.65
2023-04-24T04:39:40.345Z,63249.15
2023-04-24T04:40:43.497Z,63258.32
2023-04-24T04:41:45.366Z,63272.29
2023-04-24T04:42:47.303Z,63278.00
2023-04-24T04:43:49.163Z,63272.11
2023-04-24T04:44:51.567Z,63295.50
2023-04-24T04:45:53.613Z,63309.73
2023-04-24T04:46:55.688Z,63321.21
2023-04-24T04:47:57.549Z,63342.32
2023-04-24T04:49:00.800Z,63351.31
2023-04-24T04:50:03.545Z,63364.45
2023-04-24T04:51:05.550Z,63387.87
2023-04-24T04:52:07.667Z,63416.04
2023-04-24T04:53:09.528Z,63437.18
2023-04-24T04:54:11.467Z,63430.84
2023-04-24T04:55:13.715Z,63462.61
2023-04-24T04:56:16.713Z,63500.59
2023-04-24T04:57:18.652Z,63517.82
2023-04-24T04:58:20.603Z,63526.61
2023-04-24T04:59:22.553Z,63545.23
2023-04-24T05:00:25.016Z,63567.05
2023-04-24T05:01:26.978Z,63591.54
2023-04-24T05:02:29.003Z,63622.02
2023-04-24T05:03:31.182Z,63634.09
2023-04-24T05:04:33.412Z,63651.66
2023-04-24T05:05:35.506Z,63665.61
2023-04-24T05:06:37.680Z,63684.59
2023-04-24T05:07:39.614Z,63680.19
2023-04-24T05:08:41.462Z,63689.40
2023-04-24T05:09:43.436Z,63692.39
2023-04-24T05:10:45.813Z,63716.98
2023-04-24T05:11:48.052Z,63745.41
2023-04-24T05:12:49.914Z,63747.60
2023-04-24T05:13:51.869Z,63737.94
2023-04-24T05:14:53.713Z,63758.26
2023-04-24T05:15:56.181Z,63767.48
2023-04-24T05:16:58.357Z,63778.73
2023-04-24T05:18:00.423Z,63794.65
2023-04-24T05:19:02.380Z,63817.62
2023-04-24T05:20:06.137Z,63818.29
2023-04-24T05:21:08.273Z,63848.27
2023-04-24T05:22:10.215Z,63854.87
2023-04-24T05:23:12.075Z,63860.04
2023-04-24T05:24:13.914Z,63879.05
2023-04-24T05:25:16.068Z,63898.86
2023-04-24T05:26:18.172Z,63913.37
2023-04-24T05:27:20.729Z,63951.66
2023-04-24T05:28:24.861Z,63973.01
2023-04-24T05:29:26.856Z,63977.19
2023-04-24T05:30:29.408Z,64000.31
2023-04-24T05:31:31.399Z,64033.33
2023-04-24T05:32:33.373Z,64053.70
2023-04-24T05:33:35.409Z,64078.49
2023-04-24T05:34:37.484Z,64102.50
2023-04-24T05:35:41.180Z,64110.44
2023-04-24T05:36:43.311Z,64125.42
2023-04-24T05:37:45.201Z,64145.59
2023-04-24T05:38:47.180Z,64158.91
2023-04-24T05:39:49.162Z,64166.07
2023-04-24T05:40:51.116Z,64174.89
2023-04-24T05:41:52.974Z,64185.38
2023-04-24T05:42:55.963Z,64197.62
2023-04-24T05:43:57.887Z,64215.16
2023-04-24T05:44:59.854Z,64233.67
2023-04-24T05:46:01.988Z,64237.76
2023-04-24T05:47:04.177Z,64252.20
2023-04-24T05:48:06.475Z,64274.26
2023-04-24T05:49:09.613Z,64285.29
2023-04-24T05:50:12.303Z,64297.76
2023-04-24T05:51:14.262Z,64303.29
2023-04-24T05:52:16.206Z,64321.51
2023-04-24T05:53:21.008Z,64325.48
2023-04-24T05:54:22.903Z,64326.57
2023-04-24T05:55:26.020Z,64342.58
2023-04-24T05:56:28.117Z,64350.64
2023-04-24T05:57:30.084Z,64359.69
2023-04-24T05:58:31.971Z,64356.58
2023-04-24T05:59:36.511Z,64370.72
2023-04-24T06:00:38.983Z,64388.38
2023-04-24T06:01:40.992Z,64392.26
2023-04-24T06:02:43.113Z,64396.21
2023-04-24T06:03:45.216Z,64412.69
2023-04-24T06:04:47.398Z,64421.54
2023-04-24T06:05:51.128Z,64437.00
2023-04-24T06:06:53.233Z,64432.69
2023-04-24T06:07:55.106Z,64446.93
2023-04-24T06:08:57.039Z,64444.73
2023-04-24T06:09:58.996Z,64449.15
2023-04-24T06:11:03.272Z,64457.53
2023-04-24T06:12:05.307Z,64471.34
2023-04-24T06:13:07.222Z,64487.26
2023-04-24T06:14:09.174Z,64486.15
2023-04-24T06:15:11.510Z,64487.81
2023-04-24T06:16:13.829Z,64492.79
2023-04-24T06:17:16.279Z,64482.29
2023-04-24T06:18:18.194Z,64496.64
2023-04-24T06:19:20.152Z,64494.44
2023-04-24T06:20:22.596Z,64493.33
2023-04-24T06:21:24.492Z,64507.14
2023-04-24T06:22:26.447Z,64517.22
2023-04-24T06:23:28.306Z,64532.13
2023-04-24T06:24:30.400Z,64538.30
2023-04-24T06:25:32.721Z,64550.38
2023-04-24T06:26:34.878Z,64555.24
2023-04-24T06:27:36.749Z,64541.62
2023-04-24T06:28:39.558Z,64552.58
2023-04-24T06:29:41.912Z,64556.90
2023-04-24T06:30:44.819Z,64559.76
2023-04-24T06:31:46.811Z,64575.70
2023-04-24T06:32:48.895Z,64570.72
2023-04-24T06:33:50.909Z,64568.71
2023-04-24T06:34:52.862Z,64575.81
2023-04-24T06:35:54.739Z,64585.74
2023-04-24T06:36:57.199Z,64610.55
2023-04-24T06:37:59.198Z,64600.13
2023-04-24T06:39:01.388Z,64603.54
2023-04-24T06:40:06.006Z,64612.86
2023-04-24T06:41:08.284Z,64614.98
2023-04-24T06:42:10.177Z,64612.97
2023-04-24T06:43:12.864Z,64614.06
2023-04-24T06:44:14.832Z,64612.97
2023-04-24T06:45:16.836Z,64622.25
2023-04-24T06:46:20.431Z,64641.71
2023-04-24T06:47:22.918Z,64648.81
2023-04-24T06:48:26.209Z,64647.61
2023-04-24T06:49:28.080Z,64652.13
2023-04-24T06:50:30.281Z,64638.85
2023-04-24T06:51:32.221Z,64665.96
2023-04-24T06:52:34.083Z,64648.35
2023-04-24T06:53:35.931Z,64654.45
2023-04-24T06:54:37.812Z,64669.94
2023-04-24T06:55:40.375Z,64674.27
2023-04-24T06:56:42.573Z,64703.29
2023-04-24T06:57:44.706Z,64682.00
2023-04-24T06:58:46.857Z,64697.95
2023-04-24T06:59:48.825Z,64714.02
2023-04-24T07:00:50.893Z,64701.38
2023-04-24T07:01:55.188Z,64699.05
2023-04-24T07:02:56.681Z,64700.37
2023-04-24T07:03:58.743Z,64695.94
2023-04-24T07:05:00.734Z,64692.62
2023-04-24T07:06:03.273Z,64700.81
2023-04-24T07:07:05.165Z,64708.49
2023-04-24T07:08:07.037Z,64712.55
2023-04-24T07:09:08.966Z,64701.57
2023-04-24T07:10:11.468Z,64704.62
2023-04-24T07:11:13.435Z,64699.70
2023-04-24T07:12:15.305Z,64698.61
2023-04-24T07:13:17.335Z,64725.84
2023-04-24T07:14:20.049Z,64730.36
2023-04-24T07:15:22.348Z,64737.36
2023-04-24T07:16:24.675Z,64732.84
2023-04-24T07:17:26.623Z,64740.68
2023-04-24T07:18:28.530Z,64740.68
2023-04-24T07:19:30.393Z,64720.75
2023-04-24T07:20:32.651Z,64732.02
2023-04-24T07:21:34.818Z,64756.07
2023-04-24T07:22:38.734Z,64756.07
2023-04-24T07:23:40.647Z,64742.99
2023-04-24T07:24:45.022Z,64745.20
2023-04-24T07:25:46.929Z,64739.78
2023-04-24T07:26:49.009Z,64737.46
2023-04-24T07:27:51.050Z,64741.23
2023-04-24T07:28:53.104Z,64740.87
2023-04-24T07:29:55.057Z,64744.00
2023-04-24T07:30:57.927Z,64738.91
2023-04-24T07:32:00.995Z,64759.59
2023-04-24T07:33:03.688Z,64762.26
2023-04-24T07:34:05.629Z,64740.22
2023-04-24T07:35:08.628Z,64743.35
2023-04-24T07:36:10.784Z,64723.87
2023-04-24T07:37:12.862Z,64709.14
2023-04-24T07:38:14.998Z,64714.02
2023-04-24T07:39:16.895Z,64715.87
2023-04-24T07:40:20.508Z,64735.15
2023-04-24T07:41:24.954Z,64752.86
2023-04-24T07:42:26.816Z,64753.32
2023-04-24T07:43:29.468Z,64735.70
2023-04-24T07:44:31.453Z,64749.07
2023-04-24T07:45:33.331Z,64751.95
2023-04-24T07:46:35.470Z,64767.70
2023-04-24T07:47:37.766Z,64777.76
2023-04-24T07:48:39.761Z,64761.06
2023-04-24T07:49:42.560Z,64762.26
2023-04-24T07:50:45.256Z,64751.66
2023-04-24T07:51:47.269Z,64745.12
2023-04-24T07:52:49.340Z,64771.57
2023-04-24T07:53:51.298Z,64773.43
2023-04-24T07:54:53.171Z,64761.25
2023-04-24T07:55:56.867Z,64744.66
2023-04-24T07:56:59.127Z,64763.84
2023-04-24T07:58:01.132Z,64755.07
2023-04-24T07:59:03.063Z,64735.15
2023-04-24T08:00:06.730Z,64734.58
2023-04-24T08:01:08.613Z,64746.78
2023-04-24T08:02:10.984Z,64757.73
2023-04-24T08:03:13.530Z,64757.73
2023-04-24T08:04:15.870Z,64749.07
2023-04-24T08:05:18.234Z,64745.66
2023-04-24T08:06:20.361Z,64740.79
2023-04-24T08:07:24.237Z,64714.78
2023-04-24T08:08:28.281Z,64723.41
2023-04-24T08:09:30.319Z,64715.68
2023-04-24T08:10:32.516Z,64701.82
2023-04-24T08:11:34.504Z,64718.08
2023-04-24T08:12:37.387Z,64713.20
2023-04-24T08:13:39.388Z,64717.45
2023-04-24T08:14:41.798Z,64734.50
2023-04-24T08:15:43.970Z,64749.64
2023-04-24T08:16:46.876Z,64776.10
2023-04-24T08:17:49.016Z,64755.07
2023-04-24T08:18:51.244Z,64740.57
2023-04-24T08:19:53.152Z,64746.78
2023-04-24T08:20:55.719Z,64738.55
2023-04-24T08:21:57.608Z,64722.32
2023-04-24T08:22:59.614Z,64732.92
2023-04-24T08:24:01.602Z,64690.20
2023-04-24T08:25:04.401Z,64657.01
2023-04-24T08:26:06.588Z,64672.61
2023-04-24T08:27:09.170Z,64683.77
2023-04-24T08:28:11.202Z,64700.37
2023-04-24T08:29:13.282Z,64690.30
2023-04-24T08:30:15.606Z,64694.63
2023-04-24T08:31:17.504Z,64705.90
2023-04-24T08:32:19.791Z,64710.15
2023-04-24T08:33:24.342Z,64636.64
2023-04-24T08:34:26.337Z,64600.57
2023-04-24T08:35:28.207Z,64598.91
2023-04-24T08:36:40.047Z,64585.09
2023-04-24T08:37:34.380Z,64561.42
2023-04-24T08:38:36.529Z,64567.40
2023-04-24T08:39:38.629Z,64567.40
2023-04-24T08:40:41.596Z,64587.51
2023-04-24T08:41:44.227Z,64600.13
2023-04-24T08:42:46.354Z,64622.25
2023-04-24T08:43:49.212Z,64628.46
2023-04-24T08:44:51.437Z,64642.63
2023-04-24T08:45:57.224Z,64648.90
2023-04-24T08:47:00.820Z,64679.79
2023-04-24T08:48:04.896Z,64683.77
2023-04-24T08:49:07.035Z,64710.15
2023-04-24T08:50:10.107Z,64685.32
2023-04-24T08:51:12.088Z,64698.61
2023-04-24T08:52:13.974Z,64704.16
2023-04-24T08:53:18.032Z,64706.36
2023-04-24T08:54:21.520Z,64733.95
2023-04-24T08:55:25.109Z,64716.42
2023-04-24T08:56:28.955Z,64696.84
2023-04-24T08:57:32.700Z,64710.15
2023-04-24T08:58:36.342Z,64692.62
2023-04-24T08:59:39.003Z,64695.73
2023-04-24T09:00:41.799Z,64689.84
2023-04-24T09:01:45.715Z,64693.71
2023-04-24T09:02:50.485Z,64721.86
2023-04-24T09:03:55.231Z,64731.83
2023-04-24T09:04:58.216Z,64707.48
2023-04-24T09:06:01.666Z,64715.21
2023-04-24T09:07:06.328Z,64695.29
2023-04-24T09:08:08.681Z,64709.03
2023-04-24T09:09:11.479Z,64725.64
2023-04-24T09:10:14.138Z,64716.33
2023-04-24T09:11:17.253Z,64725.64
2023-04-24T09:12:19.544Z,64712.90
2023-04-24T09:13:21.708Z,64709.58
2023-04-24T09:14:24.362Z,64709.14
2023-04-24T09:15:26.617Z,64713.55
2023-04-24T09:16:29.240Z,64722.41
2023-04-24T09:17:32.591Z,64705.16
2023-04-24T09:18:34.531Z,64703.15
2023-04-24T09:19:39.095Z,64695.29
2023-04-24T09:21:02.912Z,64684.86
2023-04-24T09:22:06.205Z,64694.06
2023-04-24T09:23:08.117Z,64692.05
2023-04-24T09:25:45.757Z,64678.68
2023-04-24T09:26:49.315Z,64676.36
2023-04-24T09:27:54.044Z,64645.04
2023-04-24T09:28:55.916Z,64649.91
2023-04-24T09:29:58.791Z,64642.28
2023-04-24T09:31:13.803Z,64651.48
2023-04-24T09:32:20.132Z,64644.29
2023-04-24T09:33:22.105Z,64645.58
2023-04-24T09:34:26.715Z,64616.73
2023-04-24T09:35:28.684Z,64642.17
2023-04-24T09:36:40.303Z,64652.57
2023-04-24T09:37:44.890Z,64655.45
2023-04-24T09:38:46.880Z,64662.07
2023-04-24T09:39:52.684Z,64643.37
2023-04-24T09:40:54.892Z,64650.37
2023-04-24T09:41:57.729Z,64641.06
2023-04-24T09:42:59.666Z,64602.45
2023-04-24T09:44:19.602Z,64624.37
2023-04-24T09:45:21.765Z,64639.31
2023-04-24T09:46:31.731Z,64631.91
2023-04-24T09:47:39.362Z,64608.54
2023-04-24T09:48:41.452Z,64623.37
2023-04-24T09:49:43.636Z,64618.95
2023-04-24T09:50:50.619Z,64621.62
2023-04-24T09:51:54.728Z,64619.50
2023-04-24T09:53:06.047Z,64607.12
2023-04-24T09:54:15.077Z,64589.06
2023-04-24T09:55:20.079Z,64561.33
2023-04-24T09:56:25.661Z,64565.20
2023-04-24T09:57:27.737Z,64559.21
2023-04-24T09:58:29.906Z,64564.09
2023-04-24T09:59:31.802Z,64549.92
2023-04-24T10:00:34.245Z,64564.09
2023-04-24T10:01:36.463Z,64554.70
2023-04-24T10:02:38.789Z,64539.96
2023-04-24T10:03:42.555Z,64545.40
2023-04-24T10:04:55.869Z,64564.65
2023-04-24T10:06:02.955Z,64562.34
2023-04-24T10:07:05.578Z,64559.68
2023-04-24T10:08:12.491Z,64554.79
2023-04-24T10:09:15.512Z,64563.62
2023-04-24T10:10:17.937Z,64580.33
2023-04-24T10:11:19.992Z,64608.32
2023-04-24T10:12:23.278Z,64616.07
2023-04-24T10:13:25.874Z,64616.07
2023-04-24T10:14:27.832Z,64611.09
2023-04-24T10:15:30.872Z,64613.87
2023-04-24T10:16:33.275Z,64606.66
2023-04-24T10:17:36.194Z,64597.90
2023-04-24T10:18:40.183Z,64607.21
2023-04-24T10:19:43.634Z,64599.48
2023-04-24T10:20:46.353Z,64587.97
2023-04-24T10:21:48.551Z,64602.88
2023-04-24T10:22:52.817Z,64615.64
2023-04-24T10:23:55.462Z,64581.77
2023-04-24T10:24:58.814Z,64537.56
2023-04-24T10:26:00.788Z,64567.40
2023-04-24T10:27:03.848Z,64597.47
2023-04-24T10:28:06.690Z,64599.12
2023-04-24T10:29:11.069Z,64606.11
2023-04-24T10:30:14.319Z,64601.57
2023-04-24T10:31:18.922Z,64572.58
2023-04-24T10:32:20.912Z,64570.92
2023-04-24T10:33:24.281Z,64566.75
2023-04-24T10:34:26.448Z,64566.75
2023-04-24T10:35:31.305Z,64563.43
2023-04-24T10:36:35.366Z,64560.77
2023-04-24T10:37:40.343Z,64552.58
2023-04-24T10:38:45.980Z,64551.93
2023-04-24T10:39:49.141Z,64538.88
2023-04-24T10:40:51.117Z,64538.77
2023-04-24T10:41:54.396Z,64542.54
2023-04-24T10:42:58.716Z,64544.86
2023-04-24T10:44:09.478Z,64542.54
2023-04-24T10:45:22.261Z,64534.24
2023-04-24T10:46:28.158Z,64536.10
2023-04-24T10:47:30.495Z,64544.63
2023-04-24T10:48:34.558Z,64552.04
2023-04-24T10:49:36.549Z,64556.01
2023-04-24T10:50:47.733Z,64563.54
2023-04-24T10:51:50.842Z,64569.61
2023-04-24T10:52:52.852Z,64571.37
2023-04-24T10:53:57.962Z,64582.42
2023-04-24T10:55:01.970Z,64564.20
2023-04-24T10:56:09.054Z,64566.95
2023-04-24T10:57:28.062Z,64575.24
2023-04-24T10:58:42.343Z,64580.11
2023-04-24T10:59:45.463Z,64580.22
2023-04-24T11:01:01.225Z,64568.60
2023-04-24T11:02:03.331Z,64567.40
2023-04-24T11:03:26.761Z,64562.43
2023-04-24T11:05:58.983Z,64560.87
2023-04-24T11:07:02.922Z,64554.79
2023-04-24T11:08:13.508Z,64567.40
2023-04-24T11:09:15.965Z,64560.22
2023-04-24T11:10:27.648Z,64550.83
2023-04-24T11:11:30.659Z,64547.14
2023-04-24T11:12:37.864Z,64548.06
2023-04-24T11:13:58.602Z,64552.58
2023-04-24T11:15:02.180Z,64554.24
2023-04-24T11:16:16.968Z,64560.87
2023-04-24T11:17:37.398Z,64545.86
2023-04-24T11:18:43.273Z,64543.85
2023-04-24T11:19:48.927Z,64551.93
2023-04-24T11:20:52.933Z,64544.86
2023-04-24T11:21:58.465Z,64541.62
2023-04-24T11:23:04.197Z,64545.86
2023-04-24T11:25:43.750Z,64551.93
2023-04-24T11:26:45.718Z,64536.56
2023-04-24T11:27:47.771Z,64534.36
2023-04-24T11:28:51.135Z,64537.02
2023-04-24T11:29:59.993Z,64535.45
2023-04-24T11:31:22.897Z,64539.77
2023-04-24T11:32:42.124Z,64544.29
2023-04-24T11:33:44.558Z,64554.70
2023-04-24T11:34:49.333Z,64542.63
2023-04-24T11:35:51.947Z,64546.95
2023-04-24T11:36:54.066Z,64550.92
2023-04-24T11:39:00.822Z,64557.66
2023-04-24T11:40:04.684Z,64563.54
2023-04-24T11:41:06.968Z,64560.33
2023-04-24T11:42:15.345Z,64561.99
2023-04-24T11:43:20.084Z,64547.52
2023-04-24T11:44:24.769Z,64523.84
2023-04-24T11:45:29.180Z,64545.29
2023-04-24T11:46:32.670Z,64547.52
2023-04-24T11:47:34.860Z,64556.36
2023-04-24T11:48:37.017Z,64565.85
2023-04-24T11:49:39.010Z,64574.04
2023-04-24T11:50:45.048Z,64579.56
2023-04-24T11:51:53.020Z,64579.56
2023-04-24T11:52:50.911Z,64578.47
2023-04-24T11:54:03.518Z,64585.20
2023-04-24T11:55:00.518Z,64583.08
2023-04-24T11:56:04.414Z,64587.86
2023-04-24T11:57:06.527Z,64589.06
2023-04-24T11:58:08.408Z,64595.24
2023-04-24T11:59:10.449Z,64596.16
2023-04-24T12:00:18.144Z,64580.68
2023-04-24T12:01:20.496Z,64579.76
2023-04-24T12:02:25.290Z,64589.52
2023-04-24T12:03:27.881Z,64595.04
2023-04-24T12:04:35.587Z,64592.38
2023-04-24T12:05:39.052Z,64566.51
2023-04-24T12:07:02.141Z,64593.93
2023-04-24T12:08:04.447Z,64586.20
2023-04-24T12:09:17.868Z,64595.04
2023-04-24T12:10:11.182Z,64596.70
2023-04-24T12:11:15.918Z,64598.56
2023-04-24T12:12:19.135Z,64609.00
2023-04-24T12:13:21.869Z,64614.41
2023-04-24T12:14:24.534Z,64613.87
2023-04-24T12:15:27.654Z,64608.19
2023-04-24T12:16:29.883Z,64616.73
2023-04-24T12:17:33.892Z,64612.75
2023-04-24T12:18:44.301Z,64600.57
2023-04-24T12:19:47.912Z,64601.68
2023-04-24T12:20:50.630Z,64589.71
2023-04-24T12:22:04.453Z,64589.06
2023-04-24T12:23:06.368Z,64592.84
2023-04-24T12:24:08.356Z,64588.41
2023-04-24T12:25:11.267Z,64596.36
2023-04-24T12:27:31.446Z,64584.65